sensor_id;sensor_type;location;lat;lon;timestamp;temperature;humidity
61151;DHT22;47029;50.994;2.876;2022-09-01T00:02:04;19.80;93.60
61151;DHT22;47029;50.994;2.876;2022-09-01T00:04:47;19.90;93.40
61151;DHT22;47029;50.994;2.876;2022-09-01T00:07:15;19.80;93.40
61151;DHT22;47029;50.994;2.876;2022-09-01T00:09:41;19.50;93.60
61151;DHT22;47029;50.994;2.876;2022-09-01T00:12:09;19.70;93.70
61151;DHT22;47029;50.994;2.876;2022-09-01T00:14:45;19.60;94.10
61151;DHT22;47029;50.994;2.876;2022-09-01T00:17:11;19.50;94.00
61151;DHT22;47029;50.994;2.876;2022-09-01T00:19:50;19.40;94.30
61151;DHT22;47029;50.994;2.876;2022-09-01T00:22:18;19.20;94.20
61151;DHT22;47029;50.994;2.876;2022-09-01T00:24:48;19.40;94.40
61151;DHT22;47029;50.994;2.876;2022-09-01T00:27:27;18.80;94.20
61151;DHT22;47029;50.994;2.876;2022-09-01T00:29:58;19.30;94.50
61151;DHT22;47029;50.994;2.876;2022-09-01T00:32:32;18.80;94.20
61151;DHT22;47029;50.994;2.876;2022-09-01T00:35:21;19.20;94.30
61151;DHT22;47029;50.994;2.876;2022-09-01T00:38:00;19.00;94.70
61151;DHT22;47029;50.994;2.876;2022-09-01T00:40:28;19.10;94.70
61151;DHT22;47029;50.994;2.876;2022-09-01T00:43:13;18.90;94.90
61151;DHT22;47029;50.994;2.876;2022-09-01T00:45:42;19.10;95.20
61151;DHT22;47029;50.994;2.876;2022-09-01T00:48:20;18.90;95.00
61151;DHT22;47029;50.994;2.876;2022-09-01T00:51:10;18.80;95.00
61151;DHT22;47029;50.994;2.876;2022-09-01T00:53:58;18.70;95.00
61151;DHT22;47029;50.994;2.876;2022-09-01T00:56:28;18.60;94.80
61151;DHT22;47029;50.994;2.876;2022-09-01T01:01:45;18.60;95.20
61151;DHT22;47029;50.994;2.876;2022-09-01T01:04:34;18.10;95.40
61151;DHT22;47029;50.994;2.876;2022-09-01T01:07:05;18.30;95.30
61151;DHT22;47029;50.994;2.876;2022-09-01T01:09:44;19.50;95.60
61151;DHT22;47029;50.994;2.876;2022-09-01T01:12:30;18.40;95.40
61151;DHT22;47029;50.994;2.876;2022-09-01T01:15:00;18.40;95.40
61151;DHT22;47029;50.994;2.876;2022-09-01T01:17:30;18.10;95.50
61151;DHT22;47029;50.994;2.876;2022-09-01T01:20:11;18.30;95.40
61151;DHT22;47029;50.994;2.876;2022-09-01T01:23:18;18.30;95.50
61151;DHT22;47029;50.994;2.876;2022-09-01T01:26:00;18.00;95.40
61151;DHT22;47029;50.994;2.876;2022-09-01T01:28:37;18.30;95.20
61151;DHT22;47029;50.994;2.876;2022-09-01T01:31:16;18.20;95.30
61151;DHT22;47029;50.994;2.876;2022-09-01T01:33:55;18.20;95.40
61151;DHT22;47029;50.994;2.876;2022-09-01T01:36:31;18.10;95.20
61151;DHT22;47029;50.994;2.876;2022-09-01T01:39:23;18.10;95.40
61151;DHT22;47029;50.994;2.876;2022-09-01T01:42:26;18.20;95.30
61151;DHT22;47029;50.994;2.876;2022-09-01T01:45:04;18.10;95.30
61151;DHT22;47029;50.994;2.876;2022-09-01T01:47:48;18.10;95.30
61151;DHT22;47029;50.994;2.876;2022-09-01T01:50:33;18.10;95.30
61151;DHT22;47029;50.994;2.876;2022-09-01T01:53:13;18.00;95.40
61151;DHT22;47029;50.994;2.876;2022-09-01T01:55:45;18.00;95.40
61151;DHT22;47029;50.994;2.876;2022-09-01T01:58:25;18.00;95.30
61151;DHT22;47029;50.994;2.876;2022-09-01T02:00:56;18.00;95.40
61151;DHT22;47029;50.994;2.876;2022-09-01T02:03:25;17.90;95.40
61151;DHT22;47029;50.994;2.876;2022-09-01T02:05:55;17.70;95.10
61151;DHT22;47029;50.994;2.876;2022-09-01T02:08:22;18.00;95.30
61151;DHT22;47029;50.994;2.876;2022-09-01T02:10:55;18.00;95.20
61151;DHT22;47029;50.994;2.876;2022-09-01T02:14:10;17.90;95.20
61151;DHT22;47029;50.994;2.876;2022-09-01T02:16:51;18.00;95.20
61151;DHT22;47029;50.994;2.876;2022-09-01T02:19:32;17.90;95.10
61151;DHT22;47029;50.994;2.876;2022-09-01T02:22:09;17.80;95.10
61151;DHT22;47029;50.994;2.876;2022-09-01T02:24:46;17.80;95.40
61151;DHT22;47029;50.994;2.876;2022-09-01T02:27:43;17.60;95.10
61151;DHT22;47029;50.994;2.876;2022-09-01T02:30:11;18.00;95.00
61151;DHT22;47029;50.994;2.876;2022-09-01T02:32:42;18.10;95.30
61151;DHT22;47029;50.994;2.876;2022-09-01T02:35:33;17.60;95.00
61151;DHT22;47029;50.994;2.876;2022-09-01T02:38:05;17.80;95.30
61151;DHT22;47029;50.994;2.876;2022-09-01T02:40:54;17.60;94.90
61151;DHT22;47029;50.994;2.876;2022-09-01T02:43:29;17.50;94.70
61151;DHT22;47029;50.994;2.876;2022-09-01T02:46:07;17.60;94.80
61151;DHT22;47029;50.994;2.876;2022-09-01T02:48:38;17.60;94.60
61151;DHT22;47029;50.994;2.876;2022-09-01T02:51:16;17.50;94.80
61151;DHT22;47029;50.994;2.876;2022-09-01T02:53:44;17.60;94.70
61151;DHT22;47029;50.994;2.876;2022-09-01T02:56:27;17.50;94.80
61151;DHT22;47029;50.994;2.876;2022-09-01T02:59:00;17.50;94.70
61151;DHT22;47029;50.994;2.876;2022-09-01T03:01:32;17.50;94.80
61151;DHT22;47029;50.994;2.876;2022-09-01T03:04:05;17.40;94.70
61151;DHT22;47029;50.994;2.876;2022-09-01T03:06:53;17.50;94.60
61151;DHT22;47029;50.994;2.876;2022-09-01T03:09:40;17.40;94.90
61151;DHT22;47029;50.994;2.876;2022-09-01T03:12:09;17.30;95.10
61151;DHT22;47029;50.994;2.876;2022-09-01T03:14:40;17.20;95.00
61151;DHT22;47029;50.994;2.876;2022-09-01T03:17:27;17.30;95.10
61151;DHT22;47029;50.994;2.876;2022-09-01T03:20:03;17.30;94.90
61151;DHT22;47029;50.994;2.876;2022-09-01T03:22:40;17.30;95.10
61151;DHT22;47029;50.994;2.876;2022-09-01T03:25:26;17.70;95.10
61151;DHT22;47029;50.994;2.876;2022-09-01T03:28:14;17.20;95.20
61151;DHT22;47029;50.994;2.876;2022-09-01T03:31:15;17.10;95.10
61151;DHT22;47029;50.994;2.876;2022-09-01T03:33:42;16.70;95.10
61151;DHT22;47029;50.994;2.876;2022-09-01T03:36:22;16.60;95.50
61151;DHT22;47029;50.994;2.876;2022-09-01T03:38:57;17.00;95.50
61151;DHT22;47029;50.994;2.876;2022-09-01T03:41:27;17.00;95.50
61151;DHT22;47029;50.994;2.876;2022-09-01T03:46:49;16.90;95.70
61151;DHT22;47029;50.994;2.876;2022-09-01T03:49:25;16.80;95.90
61151;DHT22;47029;50.994;2.876;2022-09-01T03:51:54;16.80;96.00
61151;DHT22;47029;50.994;2.876;2022-09-01T03:54:27;16.90;96.00
61151;DHT22;47029;50.994;2.876;2022-09-01T03:57:05;16.70;96.20
61151;DHT22;47029;50.994;2.876;2022-09-01T03:59:36;16.80;95.80
61151;DHT22;47029;50.994;2.876;2022-09-01T04:02:12;16.70;95.90
61151;DHT22;47029;50.994;2.876;2022-09-01T04:04:50;16.40;96.10
61151;DHT22;47029;50.994;2.876;2022-09-01T04:07:20;16.60;96.10
61151;DHT22;47029;50.994;2.876;2022-09-01T04:09:56;17.20;96.50
61151;DHT22;47029;50.994;2.876;2022-09-01T04:12:35;16.70;96.10
61151;DHT22;47029;50.994;2.876;2022-09-01T04:15:16;16.40;96.20
61151;DHT22;47029;50.994;2.876;2022-09-01T04:17:43;17.00;96.20
61151;DHT22;47029;50.994;2.876;2022-09-01T04:20:29;16.60;96.30
61151;DHT22;47029;50.994;2.876;2022-09-01T04:23:49;16.50;96.30
61151;DHT22;47029;50.994;2.876;2022-09-01T04:26:37;16.80;96.50
61151;DHT22;47029;50.994;2.876;2022-09-01T04:29:05;16.60;96.70
61151;DHT22;47029;50.994;2.876;2022-09-01T04:31:36;16.50;96.80
61151;DHT22;47029;50.994;2.876;2022-09-01T04:34:08;16.50;96.80
61151;DHT22;47029;50.994;2.876;2022-09-01T04:36:44;15.80;96.90
61151;DHT22;47029;50.994;2.876;2022-09-01T04:39:24;16.50;97.10
61151;DHT22;47029;50.994;2.876;2022-09-01T04:41:57;16.30;97.00
61151;DHT22;47029;50.994;2.876;2022-09-01T04:44:39;16.40;97.20
61151;DHT22;47029;50.994;2.876;2022-09-01T04:47:05;16.40;97.30
61151;DHT22;47029;50.994;2.876;2022-09-01T04:49:50;16.30;97.30
61151;DHT22;47029;50.994;2.876;2022-09-01T04:52:21;16.40;97.40
61151;DHT22;47029;50.994;2.876;2022-09-01T04:54:54;16.70;98.00
61151;DHT22;47029;50.994;2.876;2022-09-01T04:57:26;16.20;97.70
61151;DHT22;47029;50.994;2.876;2022-09-01T04:59:59;16.20;97.90
61151;DHT22;47029;50.994;2.876;2022-09-01T05:02:34;15.50;97.50
61151;DHT22;47029;50.994;2.876;2022-09-01T05:05:04;16.40;98.10
61151;DHT22;47029;50.994;2.876;2022-09-01T05:07:55;16.30;98.00
61151;DHT22;47029;50.994;2.876;2022-09-01T05:10:24;16.50;98.20
61151;DHT22;47029;50.994;2.876;2022-09-01T05:13:04;16.20;98.40
61151;DHT22;47029;50.994;2.876;2022-09-01T05:15:40;16.90;98.20
61151;DHT22;47029;50.994;2.876;2022-09-01T05:18:21;16.20;98.00
61151;DHT22;47029;50.994;2.876;2022-09-01T05:21:42;16.50;98.40
61151;DHT22;47029;50.994;2.876;2022-09-01T05:24:14;16.10;98.40
61151;DHT22;47029;50.994;2.876;2022-09-01T05:26:46;16.10;98.50
61151;DHT22;47029;50.994;2.876;2022-09-01T05:29:19;16.10;98.40
61151;DHT22;47029;50.994;2.876;2022-09-01T05:31:49;16.10;98.70
61151;DHT22;47029;50.994;2.876;2022-09-01T05:34:20;16.10;98.60
61151;DHT22;47029;50.994;2.876;2022-09-01T05:36:56;15.30;98.60
61151;DHT22;47029;50.994;2.876;2022-09-01T05:39:33;16.20;98.70
61151;DHT22;47029;50.994;2.876;2022-09-01T05:42:06;16.20;98.60
61151;DHT22;47029;50.994;2.876;2022-09-01T05:44:41;16.00;98.70
61151;DHT22;47029;50.994;2.876;2022-09-01T05:47:08;16.10;99.00
61151;DHT22;47029;50.994;2.876;2022-09-01T05:49:39;16.10;99.10
61151;DHT22;47029;50.994;2.876;2022-09-01T05:52:14;16.40;98.80
61151;DHT22;47029;50.994;2.876;2022-09-01T05:54:47;16.40;98.80
61151;DHT22;47029;50.994;2.876;2022-09-01T05:57:33;16.40;99.00
61151;DHT22;47029;50.994;2.876;2022-09-01T06:00:05;16.40;98.90
61151;DHT22;47029;50.994;2.876;2022-09-01T06:02:36;16.50;99.00
61151;DHT22;47029;50.994;2.876;2022-09-01T06:05:09;16.40;99.20
61151;DHT22;47029;50.994;2.876;2022-09-01T06:07:36;16.60;99.10
61151;DHT22;47029;50.994;2.876;2022-09-01T06:10:05;17.50;99.40
61151;DHT22;47029;50.994;2.876;2022-09-01T06:12:41;16.70;98.70
61151;DHT22;47029;50.994;2.876;2022-09-01T06:15:17;16.90;98.60
61151;DHT22;47029;50.994;2.876;2022-09-01T06:17:47;17.00;98.60
61151;DHT22;47029;50.994;2.876;2022-09-01T06:20:16;17.10;98.40
61151;DHT22;47029;50.994;2.876;2022-09-01T06:22:44;17.30;98.00
61151;DHT22;47029;50.994;2.876;2022-09-01T06:25:27;17.40;98.00
61151;DHT22;47029;50.994;2.876;2022-09-01T06:27:59;17.10;97.80
61151;DHT22;47029;50.994;2.876;2022-09-01T06:30:29;18.10;97.70
61151;DHT22;47029;50.994;2.876;2022-09-01T06:33:00;17.60;97.40
61151;DHT22;47029;50.994;2.876;2022-09-01T06:35:26;17.70;97.60
61151;DHT22;47029;50.994;2.876;2022-09-01T06:38:02;17.60;97.70
61151;DHT22;47029;50.994;2.876;2022-09-01T06:40:34;17.80;97.20
61151;DHT22;47029;50.994;2.876;2022-09-01T06:43:09;17.90;97.00
61151;DHT22;47029;50.994;2.876;2022-09-01T06:45:43;17.80;96.90
61151;DHT22;47029;50.994;2.876;2022-09-01T06:48:17;17.90;96.80
61151;DHT22;47029;50.994;2.876;2022-09-01T06:50:45;18.00;96.70
61151;DHT22;47029;50.994;2.876;2022-09-01T06:53:19;18.00;96.60
61151;DHT22;47029;50.994;2.876;2022-09-01T06:55:49;17.80;96.40
61151;DHT22;47029;50.994;2.876;2022-09-01T06:58:18;18.20;96.20
61151;DHT22;47029;50.994;2.876;2022-09-01T07:00:56;18.20;96.00
61151;DHT22;47029;50.994;2.876;2022-09-01T07:03:24;18.70;96.10
61151;DHT22;47029;50.994;2.876;2022-09-01T07:05:50;18.50;96.10
61151;DHT22;47029;50.994;2.876;2022-09-01T07:08:16;18.50;95.70
61151;DHT22;47029;50.994;2.876;2022-09-01T07:10:56;18.40;96.20
61151;DHT22;47029;50.994;2.876;2022-09-01T07:13:32;18.60;95.50
61151;DHT22;47029;50.994;2.876;2022-09-01T07:16:02;18.50;95.90
61151;DHT22;47029;50.994;2.876;2022-09-01T07:18:33;18.50;96.00
61151;DHT22;47029;50.994;2.876;2022-09-01T07:21:07;18.60;95.80
61151;DHT22;47029;50.994;2.876;2022-09-01T07:23:38;18.40;96.00
61151;DHT22;47029;50.994;2.876;2022-09-01T07:26:25;19.00;96.40
61151;DHT22;47029;50.994;2.876;2022-09-01T07:28:53;18.30;95.40
61151;DHT22;47029;50.994;2.876;2022-09-01T07:31:31;18.80;95.70
61151;DHT22;47029;50.994;2.876;2022-09-01T07:34:09;19.00;95.20
61151;DHT22;47029;50.994;2.876;2022-09-01T07:36:35;19.30;94.80
61151;DHT22;47029;50.994;2.876;2022-09-01T07:39:05;19.20;95.10
61151;DHT22;47029;50.994;2.876;2022-09-01T07:41:36;19.40;94.80
61151;DHT22;47029;50.994;2.876;2022-09-01T07:44:09;19.50;94.80
61151;DHT22;47029;50.994;2.876;2022-09-01T07:46:40;19.50;94.30
61151;DHT22;47029;50.994;2.876;2022-09-01T07:49:20;20.00;94.70
61151;DHT22;47029;50.994;2.876;2022-09-01T07:51:45;19.40;94.50
61151;DHT22;47029;50.994;2.876;2022-09-01T07:54:18;19.40;94.70
61151;DHT22;47029;50.994;2.876;2022-09-01T07:56:46;19.60;94.70
61151;DHT22;47029;50.994;2.876;2022-09-01T07:59:16;19.50;94.80
61151;DHT22;47029;50.994;2.876;2022-09-01T08:01:50;19.40;94.70
61151;DHT22;47029;50.994;2.876;2022-09-01T08:04:21;19.80;94.50
61151;DHT22;47029;50.994;2.876;2022-09-01T08:06:53;19.80;94.20
61151;DHT22;47029;50.994;2.876;2022-09-01T08:09:29;20.40;94.00
61151;DHT22;47029;50.994;2.876;2022-09-01T08:12:01;19.90;93.20
61151;DHT22;47029;50.994;2.876;2022-09-01T08:14:33;20.80;93.30
61151;DHT22;47029;50.994;2.876;2022-09-01T08:17:09;21.00;93.30
61151;DHT22;47029;50.994;2.876;2022-09-01T08:19:39;20.90;93.00
61151;DHT22;47029;50.994;2.876;2022-09-01T08:22:14;21.30;92.80
61151;DHT22;47029;50.994;2.876;2022-09-01T08:24:40;21.70;92.80
61151;DHT22;47029;50.994;2.876;2022-09-01T08:27:15;21.10;92.70
61151;DHT22;47029;50.994;2.876;2022-09-01T08:29:49;21.10;92.70
61151;DHT22;47029;50.994;2.876;2022-09-01T08:32:34;21.20;92.70
61151;DHT22;47029;50.994;2.876;2022-09-01T08:35:13;21.40;92.40
61151;DHT22;47029;50.994;2.876;2022-09-01T08:37:44;21.30;92.20
61151;DHT22;47029;50.994;2.876;2022-09-01T08:40:19;21.20;92.70
61151;DHT22;47029;50.994;2.876;2022-09-01T08:45:57;22.10;92.50
61151;DHT22;47029;50.994;2.876;2022-09-01T08:48:39;21.30;92.30
61151;DHT22;47029;50.994;2.876;2022-09-01T08:51:41;21.40;92.60
61151;DHT22;47029;50.994;2.876;2022-09-01T08:54:45;21.70;92.30
61151;DHT22;47029;50.994;2.876;2022-09-01T08:57:40;21.90;92.20
61151;DHT22;47029;50.994;2.876;2022-09-01T09:00:13;22.70;92.40
61151;DHT22;47029;50.994;2.876;2022-09-01T09:08:51;22.40;91.10
61151;DHT22;47029;50.994;2.876;2022-09-01T09:17:15;22.70;91.30
61151;DHT22;47029;50.994;2.876;2022-09-01T09:20:06;22.80;91.10
61151;DHT22;47029;50.994;2.876;2022-09-01T09:22:35;23.10;91.30
61151;DHT22;47029;50.994;2.876;2022-09-01T09:25:15;22.90;91.00
61151;DHT22;47029;50.994;2.876;2022-09-01T09:27:43;23.10;91.00
61151;DHT22;47029;50.994;2.876;2022-09-01T09:30:22;22.80;90.70
61151;DHT22;47029;50.994;2.876;2022-09-01T09:33:05;23.00;91.10
61151;DHT22;47029;50.994;2.876;2022-09-01T09:35:34;22.40;90.40
61151;DHT22;47029;50.994;2.876;2022-09-01T09:41:00;23.20;90.90
61151;DHT22;47029;50.994;2.876;2022-09-01T09:43:28;23.20;90.20
61151;DHT22;47029;50.994;2.876;2022-09-01T09:46:20;23.00;90.60
61151;DHT22;47029;50.994;2.876;2022-09-01T09:48:48;23.30;90.90
61151;DHT22;47029;50.994;2.876;2022-09-01T09:51:16;23.40;90.40
61151;DHT22;47029;50.994;2.876;2022-09-01T09:53:44;23.40;90.00
61151;DHT22;47029;50.994;2.876;2022-09-01T09:56:21;23.50;90.50
61151;DHT22;47029;50.994;2.876;2022-09-01T09:58:51;23.60;89.80
61151;DHT22;47029;50.994;2.876;2022-09-01T10:03:52;23.60;89.40
61151;DHT22;47029;50.994;2.876;2022-09-01T10:06:40;23.60;90.00
61151;DHT22;47029;50.994;2.876;2022-09-01T10:11:54;23.90;90.60
61151;DHT22;47029;50.994;2.876;2022-09-01T10:14:29;24.00;89.90
61151;DHT22;47029;50.994;2.876;2022-09-01T10:17:01;24.00;90.00
61151;DHT22;47029;50.994;2.876;2022-09-01T10:19:28;24.10;89.10
61151;DHT22;47029;50.994;2.876;2022-09-01T10:21:57;24.20;88.90
61151;DHT22;47029;50.994;2.876;2022-09-01T10:26:57;24.50;87.70
61151;DHT22;47029;50.994;2.876;2022-09-01T10:29:30;24.60;88.90
61151;DHT22;47029;50.994;2.876;2022-09-01T10:31:58;24.80;87.30
61151;DHT22;47029;50.994;2.876;2022-09-01T10:34:29;24.60;87.50
61151;DHT22;47029;50.994;2.876;2022-09-01T10:36:57;24.50;87.80
61151;DHT22;47029;50.994;2.876;2022-09-01T10:39:23;24.70;87.20
61151;DHT22;47029;50.994;2.876;2022-09-01T10:42:00;24.70;86.50
61151;DHT22;47029;50.994;2.876;2022-09-01T10:44:37;25.30;86.30
61151;DHT22;47029;50.994;2.876;2022-09-01T10:47:32;24.50;86.10
61151;DHT22;47029;50.994;2.876;2022-09-01T10:50:03;24.50;86.00
61151;DHT22;47029;50.994;2.876;2022-09-01T10:57:59;24.90;84.30
61151;DHT22;47029;50.994;2.876;2022-09-01T11:08:23;25.10;84.00
61151;DHT22;47029;50.994;2.876;2022-09-01T11:11:29;25.30;82.10
61151;DHT22;47029;50.994;2.876;2022-09-01T11:13:57;25.50;81.10
61151;DHT22;47029;50.994;2.876;2022-09-01T11:17:09;25.70;81.40
61151;DHT22;47029;50.994;2.876;2022-09-01T11:34:23;25.30;80.10
61151;DHT22;47029;50.994;2.876;2022-09-01T11:36:59;25.70;80.50
61151;DHT22;47029;50.994;2.876;2022-09-01T11:42:40;26.00;79.40
61151;DHT22;47029;50.994;2.876;2022-09-01T11:45:24;26.20;78.30
61151;DHT22;47029;50.994;2.876;2022-09-01T11:48:02;25.80;78.30
61151;DHT22;47029;50.994;2.876;2022-09-01T11:50:38;26.50;77.90
61151;DHT22;47029;50.994;2.876;2022-09-01T11:53:13;26.60;77.30
61151;DHT22;47029;50.994;2.876;2022-09-01T11:55:48;26.70;76.90
61151;DHT22;47029;50.994;2.876;2022-09-01T11:58:33;26.90;77.80
61151;DHT22;47029;50.994;2.876;2022-09-01T12:01:31;26.60;76.90
61151;DHT22;47029;50.994;2.876;2022-09-01T12:04:25;26.20;77.90
61151;DHT22;47029;50.994;2.876;2022-09-01T12:06:59;26.10;77.80
61151;DHT22;47029;50.994;2.876;2022-09-01T12:09:43;26.20;76.70
61151;DHT22;47029;50.994;2.876;2022-09-01T12:15:24;26.10;76.40
61151;DHT22;47029;50.994;2.876;2022-09-01T12:18:17;26.10;77.30
61151;DHT22;47029;50.994;2.876;2022-09-01T12:20:58;26.30;77.60
61151;DHT22;47029;50.994;2.876;2022-09-01T12:23:44;26.30;76.50
61151;DHT22;47029;50.994;2.876;2022-09-01T12:26:20;26.80;77.40
61151;DHT22;47029;50.994;2.876;2022-09-01T12:29:12;26.90;75.70
61151;DHT22;47029;50.994;2.876;2022-09-01T12:32:09;26.70;77.00
61151;DHT22;47029;50.994;2.876;2022-09-01T12:37:24;27.00;75.40
61151;DHT22;47029;50.994;2.876;2022-09-01T12:40:01;27.10;75.20
61151;DHT22;47029;50.994;2.876;2022-09-01T12:42:48;26.90;74.90
61151;DHT22;47029;50.994;2.876;2022-09-01T12:45:50;26.80;75.10
61151;DHT22;47029;50.994;2.876;2022-09-01T12:48:34;26.60;76.00
61151;DHT22;47029;50.994;2.876;2022-09-01T12:51:03;26.50;76.20
61151;DHT22;47029;50.994;2.876;2022-09-01T12:53:37;26.80;75.30
61151;DHT22;47029;50.994;2.876;2022-09-01T12:56:29;26.90;75.10
61151;DHT22;47029;50.994;2.876;2022-09-01T12:59:13;27.20;75.60
61151;DHT22;47029;50.994;2.876;2022-09-01T13:01:50;27.00;74.70
61151;DHT22;47029;50.994;2.876;2022-09-01T13:04:26;27.10;74.60
61151;DHT22;47029;50.994;2.876;2022-09-01T13:07:05;27.20;74.70
61151;DHT22;47029;50.994;2.876;2022-09-01T13:09:34;27.30;73.40
61151;DHT22;47029;50.994;2.876;2022-09-01T13:12:21;27.00;73.90
61151;DHT22;47029;50.994;2.876;2022-09-01T13:14:50;27.10;73.80
61151;DHT22;47029;50.994;2.876;2022-09-01T13:17:20;27.20;75.20
61151;DHT22;47029;50.994;2.876;2022-09-01T13:19:49;27.30;74.10
61151;DHT22;47029;50.994;2.876;2022-09-01T13:22:50;27.20;74.10
61151;DHT22;47029;50.994;2.876;2022-09-01T13:25:24;27.40;73.50
61151;DHT22;47029;50.994;2.876;2022-09-01T13:27:53;26.90;74.00
61151;DHT22;47029;50.994;2.876;2022-09-01T13:30:28;27.00;74.60
61151;DHT22;47029;50.994;2.876;2022-09-01T13:32:57;27.00;74.20
61151;DHT22;47029;50.994;2.876;2022-09-01T13:35:33;27.00;76.00
61151;DHT22;47029;50.994;2.876;2022-09-01T13:37:59;26.90;74.90
61151;DHT22;47029;50.994;2.876;2022-09-01T13:40:25;26.80;74.40
61151;DHT22;47029;50.994;2.876;2022-09-01T13:42:54;26.70;75.70
61151;DHT22;47029;50.994;2.876;2022-09-01T13:45:21;26.90;75.50
61151;DHT22;47029;50.994;2.876;2022-09-01T13:47:49;26.90;73.90
61151;DHT22;47029;50.994;2.876;2022-09-01T13:50:19;26.70;74.40
61151;DHT22;47029;50.994;2.876;2022-09-01T13:52:48;27.10;74.50
61151;DHT22;47029;50.994;2.876;2022-09-01T13:55:21;27.40;75.20
61151;DHT22;47029;50.994;2.876;2022-09-01T13:57:47;27.50;73.50
61151;DHT22;47029;50.994;2.876;2022-09-01T14:00:22;27.20;74.70
61151;DHT22;47029;50.994;2.876;2022-09-01T14:02:52;27.00;75.10
61151;DHT22;47029;50.994;2.876;2022-09-01T14:05:21;26.90;75.00
61151;DHT22;47029;50.994;2.876;2022-09-01T14:07:47;26.80;74.40
61151;DHT22;47029;50.994;2.876;2022-09-01T14:10:14;26.70;75.00
61151;DHT22;47029;50.994;2.876;2022-09-01T14:12:45;26.50;73.90
61151;DHT22;47029;50.994;2.876;2022-09-01T14:15:13;26.50;75.00
61151;DHT22;47029;50.994;2.876;2022-09-01T14:18:04;26.70;74.60
61151;DHT22;47029;50.994;2.876;2022-09-01T14:20:41;26.40;75.00
61151;DHT22;47029;50.994;2.876;2022-09-01T14:23:08;26.60;74.70
61151;DHT22;47029;50.994;2.876;2022-09-01T14:25:36;26.50;74.20
61151;DHT22;47029;50.994;2.876;2022-09-01T14:28:07;26.60;74.80
61151;DHT22;47029;50.994;2.876;2022-09-01T14:30:35;26.50;74.10
61151;DHT22;47029;50.994;2.876;2022-09-01T14:33:05;26.80;73.80
61151;DHT22;47029;50.994;2.876;2022-09-01T14:35:32;27.00;73.80
61151;DHT22;47029;50.994;2.876;2022-09-01T14:38:01;26.80;73.30
61151;DHT22;47029;50.994;2.876;2022-09-01T14:40:29;26.80;72.20
61151;DHT22;47029;50.994;2.876;2022-09-01T14:43:02;26.70;73.60
61151;DHT22;47029;50.994;2.876;2022-09-01T14:45:29;26.60;71.90
61151;DHT22;47029;50.994;2.876;2022-09-01T14:47:56;26.50;72.90
61151;DHT22;47029;50.994;2.876;2022-09-01T14:50:28;26.60;72.40
61151;DHT22;47029;50.994;2.876;2022-09-01T14:53:05;26.70;71.30
61151;DHT22;47029;50.994;2.876;2022-09-01T14:55:31;26.90;71.90
61151;DHT22;47029;50.994;2.876;2022-09-01T15:00:57;26.90;73.40
61151;DHT22;47029;50.994;2.876;2022-09-01T15:06:30;27.00;72.70
61151;DHT22;47029;50.994;2.876;2022-09-01T15:08:56;26.50;73.10
61151;DHT22;47029;50.994;2.876;2022-09-01T15:11:24;26.50;73.00
61151;DHT22;47029;50.994;2.876;2022-09-01T15:13:53;26.50;72.50
61151;DHT22;47029;50.994;2.876;2022-09-01T15:19:42;26.50;71.70
61151;DHT22;47029;50.994;2.876;2022-09-01T15:22:10;26.70;73.10
61151;DHT22;47029;50.994;2.876;2022-09-01T15:24:41;26.80;71.80
61151;DHT22;47029;50.994;2.876;2022-09-01T15:27:09;26.80;72.30
61151;DHT22;47029;50.994;2.876;2022-09-01T15:29:36;27.00;71.90
61151;DHT22;47029;50.994;2.876;2022-09-01T15:32:14;26.70;71.00
61151;DHT22;47029;50.994;2.876;2022-09-01T15:34:41;26.40;71.50
61151;DHT22;47029;50.994;2.876;2022-09-01T15:37:06;26.40;71.20
61151;DHT22;47029;50.994;2.876;2022-09-01T15:39:36;26.40;71.30
61151;DHT22;47029;50.994;2.876;2022-09-01T15:42:03;26.40;71.80
61151;DHT22;47029;50.994;2.876;2022-09-01T15:44:29;26.50;71.40
61151;DHT22;47029;50.994;2.876;2022-09-01T15:46:57;26.40;71.20
61151;DHT22;47029;50.994;2.876;2022-09-01T15:49:23;26.50;71.90
61151;DHT22;47029;50.994;2.876;2022-09-01T15:51:49;26.40;72.70
61151;DHT22;47029;50.994;2.876;2022-09-01T15:54:19;26.50;70.60
61151;DHT22;47029;50.994;2.876;2022-09-01T15:56:46;26.50;71.20
61151;DHT22;47029;50.994;2.876;2022-09-01T15:59:14;26.40;69.70
61151;DHT22;47029;50.994;2.876;2022-09-01T16:01:42;26.50;71.10
61151;DHT22;47029;50.994;2.876;2022-09-01T16:04:13;26.50;70.50
61151;DHT22;47029;50.994;2.876;2022-09-01T16:06:42;26.80;70.70
61151;DHT22;47029;50.994;2.876;2022-09-01T16:09:09;26.90;70.70
61151;DHT22;47029;50.994;2.876;2022-09-01T16:11:39;26.70;70.90
61151;DHT22;47029;50.994;2.876;2022-09-01T16:14:08;26.90;70.50
61151;DHT22;47029;50.994;2.876;2022-09-01T16:16:44;26.60;70.30
61151;DHT22;47029;50.994;2.876;2022-09-01T16:24:49;26.40;70.50
61151;DHT22;47029;50.994;2.876;2022-09-01T16:27:19;26.20;70.30
61151;DHT22;47029;50.994;2.876;2022-09-01T16:29:57;25.90;70.80
61151;DHT22;47029;50.994;2.876;2022-09-01T16:32:29;26.00;70.30
61151;DHT22;47029;50.994;2.876;2022-09-01T16:35:15;26.30;70.90
61151;DHT22;47029;50.994;2.876;2022-09-01T16:38:29;26.10;69.80
61151;DHT22;47029;50.994;2.876;2022-09-01T16:41:00;25.70;70.40
61151;DHT22;47029;50.994;2.876;2022-09-01T16:46:46;25.80;70.60
61151;DHT22;47029;50.994;2.876;2022-09-01T16:49:38;25.80;69.60
61151;DHT22;47029;50.994;2.876;2022-09-01T16:52:18;25.70;71.00
61151;DHT22;47029;50.994;2.876;2022-09-01T17:00:20;25.40;71.80
61151;DHT22;47029;50.994;2.876;2022-09-01T17:03:17;25.40;71.90
61151;DHT22;47029;50.994;2.876;2022-09-01T17:06:01;25.40;71.40
61151;DHT22;47029;50.994;2.876;2022-09-01T17:08:30;25.20;71.60
61151;DHT22;47029;50.994;2.876;2022-09-01T17:11:00;25.20;71.70
61151;DHT22;47029;50.994;2.876;2022-09-01T17:13:37;25.20;72.00
61151;DHT22;47029;50.994;2.876;2022-09-01T17:16:23;25.00;71.80
61151;DHT22;47029;50.994;2.876;2022-09-01T17:19:03;25.10;72.00
61151;DHT22;47029;50.994;2.876;2022-09-01T17:21:37;25.00;72.00
61151;DHT22;47029;50.994;2.876;2022-09-01T17:26:40;24.90;73.00
61151;DHT22;47029;50.994;2.876;2022-09-01T17:29:42;24.90;73.30
61151;DHT22;47029;50.994;2.876;2022-09-01T17:32:30;24.80;73.30
61151;DHT22;47029;50.994;2.876;2022-09-01T17:35:04;24.70;73.40
61151;DHT22;47029;50.994;2.876;2022-09-01T17:40:23;24.70;73.60
61151;DHT22;47029;50.994;2.876;2022-09-01T17:43:24;24.50;74.30
61151;DHT22;47029;50.994;2.876;2022-09-01T17:46:10;24.40;74.00
61151;DHT22;47029;50.994;2.876;2022-09-01T17:48:53;24.40;74.30
61151;DHT22;47029;50.994;2.876;2022-09-01T17:51:36;24.50;74.40
61151;DHT22;47029;50.994;2.876;2022-09-01T17:54:34;24.40;74.20
61151;DHT22;47029;50.994;2.876;2022-09-01T18:05:25;24.20;74.90
61151;DHT22;47029;50.994;2.876;2022-09-01T18:08:11;24.00;74.70
61151;DHT22;47029;50.994;2.876;2022-09-01T18:19:42;23.60;75.30